createdAt,value
2022-09-06T00:01:19.861Z,99.90
2022-09-06T00:04:05.507Z,99.90
2022-09-06T00:06:51.028Z,99.90
2022-09-06T00:09:36.669Z,99.90
2022-09-06T00:12:22.201Z,99.90
2022-09-06T00:15:07.720Z,99.90
2022-09-06T00:17:53.097Z,99.90
2022-09-06T00:20:41.419Z,99.90
2022-09-06T00:23:27.097Z,99.90
2022-09-06T00:26:12.372Z,99.90
2022-09-06T00:28:57.973Z,99.90
2022-09-06T00:31:43.327Z,99.90
2022-09-06T00:34:28.691Z,99.90
2022-09-06T00:37:14.149Z,99.90
2022-09-06T00:39:59.198Z,99.90
2022-09-06T00:42:44.943Z,99.90
2022-09-06T00:45:30.897Z,99.90
2022-09-06T00:48:16.994Z,99.90
2022-09-06T00:51:03.764Z,99.90
2022-09-06T00:53:49.395Z,99.90
2022-09-06T00:56:35.543Z,99.90
2022-09-06T00:59:21.372Z,99.90
2022-09-06T01:02:07.208Z,99.90
2022-09-06T01:04:52.831Z,99.90
2022-09-06T01:07:55.044Z,99.90
2022-09-06T01:10:52.427Z,99.90
2022-09-06T01:13:44.737Z,99.90
2022-09-06T01:16:30.125Z,99.90
2022-09-06T01:19:34.525Z,99.90
2022-09-06T01:22:49.151Z,99.90
2022-09-06T01:25:37.301Z,99.90
2022-09-06T01:28:34.540Z,99.90
2022-09-06T01:31:25.896Z,99.90
2022-09-06T01:34:16.010Z,99.90
2022-09-06T01:37:15.968Z,99.90
2022-09-06T01:40:01.601Z,99.90
2022-09-06T01:42:48.352Z,99.90
2022-09-06T01:45:51.899Z,99.90
2022-09-06T01:48:51.158Z,99.90
2022-09-06T01:51:55.160Z,99.90
2022-09-06T01:54:40.313Z,99.90
2022-09-06T01:57:25.343Z,99.90
2022-09-06T02:00:20.249Z,99.90
2022-09-06T02:03:11.599Z,99.90
2022-09-06T02:06:09.953Z,99.90
2022-09-06T02:09:04.850Z,99.90
2022-09-06T02:11:51.566Z,99.90
2022-09-06T02:14:41.506Z,99.90
2022-09-06T02:17:30.394Z,99.90
2022-09-06T02:20:24.705Z,99.90
2022-09-06T02:23:10.143Z,99.90
2022-09-06T02:26:02.956Z,99.90
2022-09-06T02:28:48.587Z,99.90
2022-09-06T02:31:54.703Z,99.90
2022-09-06T02:34:40.910Z,99.90
2022-09-06T02:37:26.324Z,99.90
2022-09-06T02:40:12.381Z,99.90
2022-09-06T02:42:57.952Z,99.90
2022-09-06T02:45:43.105Z,99.90
2022-09-06T02:48:28.939Z,99.90
2022-09-06T02:51:14.293Z,99.90
2022-09-06T02:53:59.746Z,99.90
2022-09-06T02:56:47.061Z,99.90
2022-09-06T02:59:36.136Z,99.90
2022-09-06T03:02:21.464Z,99.90
2022-09-06T03:05:07.233Z,99.90
2022-09-06T03:07:53.003Z,99.90
2022-09-06T03:10:38.251Z,99.90
2022-09-06T03:13:24.007Z,99.90
2022-09-06T03:16:09.434Z,99.90
2022-09-06T03:18:54.468Z,99.90
2022-09-06T03:21:40.082Z,99.90
2022-09-06T03:24:25.106Z,99.90
2022-09-06T03:27:10.238Z,99.90
2022-09-06T03:29:55.929Z,99.90
2022-09-06T03:32:41.170Z,99.90
2022-09-06T03:35:26.395Z,99.90
2022-09-06T03:38:11.910Z,99.90
2022-09-06T03:40:57.469Z,99.90
2022-09-06T03:43:42.633Z,99.90
2022-09-06T03:46:30.501Z,99.90
2022-09-06T03:49:15.793Z,99.90
2022-09-06T03:52:00.935Z,99.90
2022-09-06T03:54:46.473Z,99.90
2022-09-06T03:57:32.138Z,99.90
2022-09-06T04:00:17.703Z,99.90
2022-09-06T04:03:03.278Z,99.90
2022-09-06T04:05:48.499Z,99.90
2022-09-06T04:08:35.614Z,99.90
2022-09-06T04:11:21.295Z,99.90
2022-09-06T04:14:06.482Z,99.90
2022-09-06T04:16:52.036Z,99.90
2022-09-06T04:19:37.712Z,99.90
2022-09-06T04:22:22.616Z,99.90
2022-09-06T04:25:08.541Z,99.90
2022-09-06T04:27:53.981Z,99.90
2022-09-06T04:30:39.537Z,99.90
2022-09-06T04:33:27.648Z,99.90
2022-09-06T04:36:13.473Z,99.90
2022-09-06T04:38:58.998Z,99.90
2022-09-06T04:41:44.606Z,99.90
2022-09-06T04:44:29.712Z,99.90
2022-09-06T04:47:15.763Z,99.90
2022-09-06T04:50:01.109Z,99.90
2022-09-06T04:52:46.212Z,99.90
2022-09-06T04:55:33.878Z,99.90
2022-09-06T04:58:19.406Z,99.90
2022-09-06T05:01:05.228Z,99.90
2022-09-06T05:03:53.956Z,99.90
2022-09-06T05:06:41.770Z,99.90
2022-09-06T05:09:27.080Z,99.90
2022-09-06T05:12:12.163Z,99.90
2022-09-06T05:14:57.236Z,99.90
2022-09-06T05:17:42.569Z,99.90
2022-09-06T05:20:27.726Z,99.90
2022-09-06T05:23:13.547Z,99.90
2022-09-06T05:25:58.651Z,99.90
2022-09-06T05:28:44.201Z,99.90
2022-09-06T05:31:33.570Z,99.90
2022-09-06T05:34:19.069Z,99.90
2022-09-06T05:37:04.626Z,99.90
2022-09-06T05:39:49.811Z,99.90
2022-09-06T05:42:35.313Z,99.90
2022-09-06T05:45:20.447Z,99.90
2022-09-06T05:48:05.935Z,99.90
2022-09-06T05:51:05.989Z,99.90
2022-09-06T05:53:51.896Z,99.90
2022-09-06T05:56:37.722Z,99.90
2022-09-06T05:59:23.199Z,99.90
2022-09-06T06:02:08.799Z,99.90
2022-09-06T06:04:54.698Z,99.90
2022-09-06T06:07:40.057Z,99.90
2022-09-06T06:10:26.246Z,99.90
2022-09-06T06:13:12.441Z,99.90
2022-09-06T06:15:58.215Z,99.90
2022-09-06T06:18:47.634Z,99.90
2022-09-06T06:21:35.669Z,99.90
2022-09-06T06:24:20.891Z,99.90
2022-09-06T06:27:06.003Z,99.90
2022-09-06T06:29:52.447Z,99.90
2022-09-06T06:32:37.760Z,99.90
2022-09-06T06:35:23.373Z,99.90
2022-09-06T06:38:08.854Z,99.90
2022-09-06T06:41:00.096Z,99.90
2022-09-06T06:43:47.880Z,99.90
2022-09-06T06:46:35.082Z,99.90
2022-09-06T06:49:20.395Z,99.90
2022-09-06T06:52:05.832Z,99.90
2022-09-06T06:54:51.440Z,99.90
2022-09-06T06:57:37.116Z,99.90
2022-09-06T07:00:26.345Z,99.90
2022-09-06T07:03:13.585Z,99.90
2022-09-06T07:06:14.363Z,99.90
2022-09-06T07:09:00.092Z,99.90
2022-09-06T07:11:46.580Z,99.90
2022-09-06T07:14:31.783Z,99.90
2022-09-06T07:17:17.715Z,99.90
2022-09-06T07:20:18.905Z,99.90
2022-09-06T07:26:16.988Z,99.90
2022-09-06T07:29:05.325Z,99.90
2022-09-06T07:34:58.452Z,99.90
2022-09-06T07:37:44.010Z,99.90
2022-09-06T07:40:31.076Z,99.90
2022-09-06T07:43:16.511Z,99.90
2022-09-06T07:46:09.833Z,99.90
2022-09-06T07:48:54.949Z,99.90
2022-09-06T07:51:40.705Z,99.90
2022-09-06T07:54:30.291Z,99.90
2022-09-06T07:57:16.198Z,99.90
2022-09-06T08:00:02.536Z,99.90
2022-09-06T08:02:48.073Z,99.90
2022-09-06T08:11:40.117Z,99.90
2022-09-06T08:14:26.471Z,99.90
2022-09-06T08:17:11.743Z,99.90
2022-09-06T08:19:57.823Z,99.90
2022-09-06T08:22:43.253Z,99.90
2022-09-06T08:25:28.384Z,99.90
2022-09-06T08:28:13.416Z,99.90
2022-09-06T08:31:13.182Z,99.90
2022-09-06T08:33:59.877Z,99.90
2022-09-06T08:36:46.644Z,99.90
2022-09-06T08:39:32.480Z,99.90
2022-09-06T08:42:17.923Z,99.90
2022-09-06T08:45:09.042Z,99.90
2022-09-06T08:47:56.119Z,99.90
2022-09-06T08:50:45.003Z,99.90
2022-09-06T08:53:30.996Z,99.90
2022-09-06T08:56:24.420Z,99.90
2022-09-06T08:59:13.253Z,99.90
2022-09-06T09:02:11.361Z,99.90
2022-09-06T09:05:02.012Z,99.90
2022-09-06T09:07:59.570Z,99.90
2022-09-06T09:10:47.559Z,99.90
2022-09-06T09:13:43.914Z,99.90
2022-09-06T09:16:29.517Z,99.90
2022-09-06T09:19:15.198Z,99.90
2022-09-06T09:22:00.965Z,99.90
2022-09-06T09:24:48.343Z,99.90
2022-09-06T09:27:34.040Z,99.90
2022-09-06T09:33:29.455Z,99.90
2022-09-06T09:36:15.198Z,99.90
2022-09-06T09:39:00.849Z,99.90
2022-09-06T09:41:50.552Z,99.90
2022-09-06T09:44:42.176Z,99.90
2022-09-06T09:47:29.291Z,99.90
2022-09-06T09:50:26.884Z,99.90
2022-09-06T09:53:16.656Z,99.90
2022-09-06T09:56:02.225Z,99.90
2022-09-06T09:58:47.757Z,99.90
2022-09-06T10:01:36.574Z,99.90
2022-09-06T10:04:45.430Z,99.90
2022-09-06T10:07:32.173Z,99.90
2022-09-06T10:10:22.297Z,99.90
2022-09-06T10:13:10.241Z,99.90
2022-09-06T10:15:56.572Z,99.90
2022-09-06T10:18:43.690Z,99.90
2022-09-06T10:21:29.498Z,99.90
2022-09-06T10:24:38.485Z,99.90
2022-09-06T10:27:26.253Z,99.90
2022-09-06T10:30:14.067Z,99.90
2022-09-06T10:33:05.649Z,99.90
2022-09-06T10:35:52.471Z,99.90
2022-09-06T10:38:53.304Z,99.90
2022-09-06T10:41:44.047Z,99.90
2022-09-06T10:44:29.138Z,99.90
2022-09-06T10:47:15.528Z,99.90
2022-09-06T10:50:01.678Z,99.90
2022-09-06T10:52:48.293Z,99.90
2022-09-06T10:55:34.202Z,99.90
2022-09-06T10:58:25.076Z,99.90
2022-09-06T11:01:17.403Z,99.90
2022-09-06T11:04:08.034Z,99.90
2022-09-06T11:07:00.724Z,99.90
2022-09-06T11:09:48.355Z,99.90
2022-09-06T11:12:45.980Z,99.90
2022-09-06T11:15:40.424Z,99.90
2022-09-06T11:18:44.330Z,99.90
2022-09-06T11:21:36.079Z,99.90
2022-09-06T11:24:42.052Z,99.90
2022-09-06T11:27:30.203Z,99.90
2022-09-06T11:30:16.826Z,99.90
2022-09-06T11:33:22.159Z,99.90
2022-09-06T11:36:28.474Z,99.90
2022-09-06T11:39:14.982Z,99.90
2022-09-06T11:42:03.554Z,99.90
2022-09-06T11:44:53.425Z,99.90
2022-09-06T11:47:42.819Z,99.90
2022-09-06T11:50:47.928Z,99.90
2022-09-06T11:53:52.905Z,99.90
2022-09-06T11:56:47.166Z,99.90
2022-09-06T11:59:48.068Z,99.90
2022-09-06T12:02:36.329Z,99.90
2022-09-06T12:05:23.480Z,99.90
2022-09-06T12:08:12.201Z,99.90
2022-09-06T12:10:59.603Z,99.90
2022-09-06T12:13:44.949Z,99.90
2022-09-06T12:17:07.199Z,99.90
2022-09-06T12:19:59.466Z,99.90
2022-09-06T12:22:48.232Z,99.90
2022-09-06T12:25:33.562Z,99.40
2022-09-06T12:28:37.580Z,99.50
2022-09-06T12:31:25.122Z,99.80
2022-09-06T12:34:17.296Z,99.90
2022-09-06T12:37:07.286Z,99.50
2022-09-06T12:39:59.748Z,98.80
2022-09-06T12:42:47.003Z,98.90
2022-09-06T12:45:32.752Z,97.90
2022-09-06T12:48:32.278Z,97.70
2022-09-06T12:51:21.014Z,97.30
2022-09-06T12:54:23.305Z,97.30
2022-09-06T12:57:26.651Z,97.10
2022-09-06T13:00:12.480Z,97.00
2022-09-06T13:03:10.796Z,97.90
2022-09-06T13:05:58.776Z,96.80
2022-09-06T13:08:47.344Z,97.60
2022-09-06T13:11:34.723Z,98.20
2022-09-06T13:14:24.056Z,96.70
2022-09-06T13:17:22.505Z,97.00
2022-09-06T13:20:12.222Z,97.80
2022-09-06T13:23:11.467Z,96.70
2022-09-06T13:25:57.109Z,96.10
2022-09-06T13:28:42.408Z,98.10
2022-09-06T13:31:33.861Z,97.00
2022-09-06T13:34:23.602Z,96.10
2022-09-06T13:37:09.466Z,96.60
2022-09-06T13:39:54.904Z,96.10
2022-09-06T13:42:40.351Z,96.10
2022-09-06T13:45:27.620Z,96.70
2022-09-06T13:48:36.272Z,96.70
2022-09-06T13:51:18.391Z,96.50
2022-09-06T13:54:07.833Z,96.80
2022-09-06T13:56:53.289Z,97.70
2022-09-06T13:59:39.338Z,96.20
2022-09-06T14:02:25.293Z,94.90
2022-09-06T14:05:10.648Z,95.20
2022-09-06T14:07:55.791Z,95.20
2022-09-06T14:10:41.567Z,94.90
2022-09-06T14:13:27.112Z,95.90
2022-09-06T14:16:12.821Z,95.30
2022-09-06T14:18:58.404Z,95.60
2022-09-06T14:21:43.974Z,96.20
2022-09-06T14:24:29.555Z,95.60
2022-09-06T14:27:14.782Z,95.40
2022-09-06T14:30:00.456Z,95.90
2022-09-06T14:32:45.968Z,95.50
2022-09-06T14:35:31.868Z,95.80
2022-09-06T14:38:17.049Z,96.80
2022-09-06T14:41:03.887Z,96.10
2022-09-06T14:43:51.203Z,96.80
2022-09-06T14:46:37.125Z,95.60
2022-09-06T14:49:22.481Z,96.30
2022-09-06T14:52:07.890Z,96.60
2022-09-06T14:54:53.215Z,97.30
2022-09-06T14:57:38.383Z,96.70
2022-09-06T15:00:23.587Z,96.90
2022-09-06T15:03:09.194Z,97.30
2022-09-06T15:05:54.763Z,97.30
2022-09-06T15:08:39.873Z,97.40
2022-09-06T15:11:35.533Z,98.00
2022-09-06T15:14:22.589Z,98.00
2022-09-06T15:17:09.041Z,98.40
2022-09-06T15:19:54.426Z,98.80
2022-09-06T15:22:39.565Z,99.50
2022-09-06T15:25:25.139Z,99.80
2022-09-06T15:28:10.178Z,99.90
2022-09-06T15:30:55.876Z,99.90
2022-09-06T15:33:41.723Z,99.90
2022-09-06T15:36:27.941Z,99.90
2022-09-06T15:39:14.315Z,99.90
2022-09-06T15:41:59.758Z,99.90
2022-09-06T15:44:45.236Z,99.90
2022-09-06T15:47:30.358Z,99.90
2022-09-06T15:50:29.113Z,99.90
2022-09-06T15:53:21.469Z,99.90
2022-09-06T15:56:07.231Z,99.90
2022-09-06T15:58:52.936Z,99.90
2022-09-06T16:01:38.982Z,99.90
2022-09-06T16:04:24.682Z,99.90
2022-09-06T16:07:10.151Z,99.90
2022-09-06T16:09:56.063Z,99.90
2022-09-06T16:12:41.718Z,99.90
2022-09-06T16:15:27.084Z,99.90
2022-09-06T16:18:12.113Z,99.90
2022-09-06T16:20:57.861Z,99.90
2022-09-06T16:23:47.359Z,99.90
2022-09-06T16:26:34.118Z,99.90
2022-09-06T16:29:20.326Z,99.90
2022-09-06T16:32:06.144Z,99.90
2022-09-06T16:34:51.678Z,99.90
2022-09-06T16:37:36.784Z,99.90
2022-09-06T16:40:21.789Z,99.90
2022-09-06T16:43:07.563Z,99.90
2022-09-06T16:46:00.291Z,99.90
2022-09-06T16:48:52.835Z,99.90
2022-09-06T16:51:38.518Z,99.90
2022-09-06T16:54:23.579Z,99.90
2022-09-06T16:57:09.194Z,99.90
2022-09-06T16:59:54.735Z,99.90
2022-09-06T17:02:42.699Z,99.90
2022-09-06T17:05:34.528Z,99.90
2022-09-06T17:08:20.154Z,99.90
2022-09-06T17:11:10.190Z,99.90
2022-09-06T17:13:55.866Z,99.90
2022-09-06T17:17:00.015Z,99.90
2022-09-06T17:19:45.558Z,99.90
2022-09-06T17:22:31.273Z,99.90
2022-09-06T17:25:16.763Z,99.90
2022-09-06T17:28:01.969Z,99.90
2022-09-06T17:30:48.094Z,99.90
2022-09-06T17:33:34.527Z,99.90
2022-09-06T17:36:24.297Z,99.90
2022-09-06T17:39:13.858Z,99.90
2022-09-06T17:41:59.295Z,99.90
2022-09-06T17:44:45.659Z,99.90
2022-09-06T17:47:31.980Z,99.90
2022-09-06T17:50:17.642Z,99.90
2022-09-06T17:53:03.434Z,99.90
2022-09-06T17:55:52.107Z,99.90
2022-09-06T17:58:37.693Z,99.90
2022-09-06T18:01:24.141Z,99.90
2022-09-06T18:04:11.023Z,99.90
2022-09-06T18:06:56.346Z,99.90
2022-09-06T18:09:42.177Z,99.90
2022-09-06T18:12:31.077Z,99.90
2022-09-06T18:15:16.704Z,99.90
2022-09-06T18:18:02.724Z,99.90
2022-09-06T18:20:49.965Z,99.90
2022-09-06T18:23:35.822Z,99.90
2022-09-06T18:26:21.431Z,99.90
2022-09-06T18:29:11.766Z,99.90
2022-09-06T18:31:57.587Z,99.90
2022-09-06T18:34:43.162Z,99.90
2022-09-06T18:37:28.741Z,99.90
2022-09-06T18:40:14.476Z,99.90
2022-09-06T18:43:00.151Z,99.90
2022-09-06T18:45:46.453Z,99.90
2022-09-06T18:48:33.054Z,99.90
2022-09-06T18:51:18.434Z,99.90
2022-09-06T18:54:03.727Z,99.90
2022-09-06T18:56:50.223Z,99.90
2022-09-06T18:59:35.862Z,99.90
2022-09-06T19:02:23.574Z,99.90
2022-09-06T19:05:09.230Z,99.90
2022-09-06T19:07:54.723Z,99.90
2022-09-06T19:10:40.317Z,99.90
2022-09-06T19:13:25.999Z,99.90
2022-09-06T19:16:12.638Z,99.90
2022-09-06T19:19:05.085Z,99.90
2022-09-06T19:21:50.341Z,99.90
2022-09-06T19:24:36.290Z,99.90
2022-09-06T19:27:21.989Z,99.90
2022-09-06T19:30:07.823Z,99.90
2022-09-06T19:32:53.585Z,99.90
2022-09-06T19:35:50.956Z,99.90
2022-09-06T19:39:02.588Z,99.90
2022-09-06T19:41:49.107Z,99.90
2022-09-06T19:44:35.047Z,99.90
2022-09-06T19:47:20.229Z,99.90
2022-09-06T19:50:06.678Z,99.90
2022-09-06T19:52:52.407Z,99.90
2022-09-06T19:55:38.081Z,99.90
2022-09-06T19:58:25.880Z,99.90
2022-09-06T20:01:12.823Z,99.90
2022-09-06T20:03:58.754Z,99.90
2022-09-06T20:06:44.266Z,99.90
2022-09-06T20:09:29.616Z,99.90
2022-09-06T20:12:17.753Z,99.90
2022-09-06T20:15:02.907Z,99.90
2022-09-06T20:17:50.451Z,99.90
2022-09-06T20:20:35.821Z,99.90
2022-09-06T20:23:21.285Z,99.90
2022-09-06T20:26:06.602Z,99.90
2022-09-06T20:28:59.027Z,99.90
2022-09-06T20:31:44.747Z,99.90
2022-09-06T20:34:31.028Z,99.90
2022-09-06T20:37:16.644Z,99.90
2022-09-06T20:40:01.708Z,99.90
2022-09-06T20:42:47.297Z,99.90
2022-09-06T20:45:33.074Z,99.90
2022-09-06T20:48:18.594Z,99.90
2022-09-06T20:51:06.908Z,99.90
2022-09-06T20:53:54.341Z,99.90
2022-09-06T20:56:40.548Z,99.90
2022-09-06T20:59:26.675Z,99.90
2022-09-06T21:02:12.079Z,99.90
2022-09-06T21:04:57.834Z,99.90
2022-09-06T21:07:43.181Z,99.90
2022-09-06T21:10:28.855Z,99.90
2022-09-06T21:13:14.455Z,99.90
2022-09-06T21:16:00.444Z,99.90
2022-09-06T21:18:50.183Z,99.90
2022-09-06T21:21:35.707Z,99.90
2022-09-06T21:24:20.773Z,99.90
2022-09-06T21:27:06.892Z,99.90
2022-09-06T21:29:52.038Z,99.90
2022-09-06T21:32:37.219Z,99.90
2022-09-06T21:35:22.410Z,99.90
2022-09-06T21:38:07.643Z,99.90
2022-09-06T21:40:52.658Z,99.90
2022-09-06T21:43:38.961Z,99.90
2022-09-06T21:46:30.332Z,99.90
2022-09-06T21:49:17.838Z,99.90
2022-09-06T21:52:02.976Z,99.90
2022-09-06T21:54:48.336Z,99.90
2022-09-06T21:57:33.448Z,99.90
2022-09-06T22:00:18.785Z,99.90
2022-09-06T22:03:04.986Z,99.90
2022-09-06T22:05:50.561Z,99.90
2022-09-06T22:08:36.348Z,99.90
2022-09-06T22:11:23.194Z,99.90
2022-09-06T22:14:10.752Z,99.90
2022-09-06T22:16:56.509Z,99.90
2022-09-06T22:19:42.059Z,99.90
2022-09-06T22:22:27.879Z,99.90
2022-09-06T22:25:13.877Z,99.90
2022-09-06T22:27:59.551Z,99.90
2022-09-06T22:30:45.351Z,99.90
2022-09-06T22:33:31.133Z,99.90
2022-09-06T22:36:17.307Z,99.90
2022-09-06T22:39:02.627Z,99.90
2022-09-06T22:41:48.069Z,99.90
2022-09-06T22:44:34.191Z,99.90
2022-09-06T22:47:20.193Z,99.90
2022-09-06T22:50:06.862Z,99.90
2022-09-06T22:52:52.642Z,99.90
2022-09-06T22:55:38.790Z,99.90
2022-09-06T22:58:26.911Z,99.90
2022-09-06T23:01:14.094Z,99.90
2022-09-06T23:03:59.527Z,99.90
2022-09-06T23:06:44.870Z,99.90
2022-09-06T23:09:30.737Z,99.90
2022-09-06T23:12:16.366Z,99.90
2022-09-06T23:15:01.954Z,99.90
2022-09-06T23:17:47.542Z,99.90
2022-09-06T23:20:35.181Z,99.90
2022-09-06T23:23:20.860Z,99.90
2022-09-06T23:26:08.094Z,99.90
2022-09-06T23:28:56.849Z,99.90
2022-09-06T23:31:42.553Z,99.90
2022-09-06T23:34:28.292Z,99.90
2022-09-06T23:37:14.124Z,99.90
2022-09-06T23:39:59.605Z,99.90
2022-09-06T23:42:45.399Z,99.90
2022-09-06T23:45:30.881Z,99.90
2022-09-06T23:48:16.664Z,99.90
2022-09-06T23:51:02.558Z,99.90
2022-09-06T23:53:48.168Z,99.90
2022-09-06T23:56:33.803Z,99.90
2022-09-06T23:59:19.783Z,99.90
